Surface/Precipitation History
02/26/2015 14:11  to  2/27/2015 14:11
Change End Date:
Date/Time
(MST)
Sf
Temp Chem Water Layer Surface Precipitation
Sf Sub Frz Factor Pct Depth IcePct Cond Salin Type Intens Accum Rate
02/27/2015 14:08 Dry 27.9F 26F - - - - - 0 mhos 41 None None - -
02/27/2015 13:59 Dry 27.9F 26F - - - - - 0 mhos 41 Yes - - -
02/27/2015 13:51 Dry 27.9F 26F - - - - - 0 mhos 39 Yes - - -
02/27/2015 13:49 Dry 28.2F 26F - - - - - 0 mhos 31 Yes - - -
02/27/2015 13:39 Dry 29.1F 26F - - - - - 0 mhos 34 None None - -
02/27/2015 13:38 Dry 29.1F 26F - - - - - 0 mhos 35 None None - -
02/27/2015 13:29 Dry 28.0F 26F - - - - - 0 mhos 47 Yes - - -
02/27/2015 13:21 Dry 28.8F 26F - - - - - 0 mhos 44 None None - -
02/27/2015 13:19 Dry 28.4F 26F - - - - - 0 mhos 48 None None - -
02/27/2015 13:09 Dry 28.0F 26F - - - - - 0 mhos 63 None None - -
02/27/2015 13:07 Dry 28.0F 26F - - - - - 0 mhos 60 None None - -
02/27/2015 12:59 Dry 28.0F 26F - - - - - 0 mhos 51 None None - -
02/27/2015 12:51 Dry 28.4F 26F - - - - - 0 mhos 57 None None - -
02/27/2015 12:49 Dry 28.0F 26F - - - - - 0 mhos 63 None None - -
02/27/2015 12:39 Dry 27.5F 26F - - - - - 1 mhos 83 None None - -
Date/Time
(MST)
Sf
Temp Chem Water Layer Surface Precipitation
Sf Sub Frz Factor Pct Depth IcePct Cond Salin Type Intens Accum Rate
02/27/2015 12:37 Dry 27.3F 26F - - - - - 1 mhos 87 None None - -
02/27/2015 12:29 Dry 27.9F 26F - - - - - 1 mhos 77 Yes - - -
02/27/2015 12:21 Dry 28.8F 26F - - - - - 0 mhos 54 None None - -
02/27/2015 12:18 Dry 29.3F 26F - - - - - 0 mhos 52 None None - -
02/27/2015 12:08 Dry 30.0F 26F - - - - - 0 mhos 23 None None - -
02/27/2015 12:08 Dry 30.0F 26F - - - - - 0 mhos 23 None None - -
02/27/2015 11:58 Dry 28.2F 26F - - - - - 0 mhos 39 Yes - - -
02/27/2015 11:51 Dry 28.0F 26F - - - - - 0 mhos 42 None None - -
02/27/2015 11:48 Dry 27.1F 26F - - - - - 0 mhos 50 Yes - - -
02/27/2015 11:38 Dry 27.0F 26F - - - - - 0 mhos 41 None None - -
02/27/2015 11:37 Dry 27.3F 26F - - - - - 0 mhos 38 None None - -
02/27/2015 11:28 Dry 28.6F 26F - - - - - 0 mhos 21 None None - -
02/27/2015 11:21 Dry 29.8F 26F - - - - - 0 mhos 29 None None - -
02/27/2015 11:18 Dry 29.1F 26F - - - - - 0 mhos 33 Yes - - -
02/27/2015 11:08 Dry 28.9F 26F - - - - - 0 mhos 24 Yes - - -
Date/Time
(MST)
Sf
Temp Chem Water Layer Surface Precipitation
Sf Sub Frz Factor Pct Depth IcePct Cond Salin Type Intens Accum Rate
02/27/2015 11:07 Dry 29.3F 26F - - - - - 0 mhos 20 Yes - - -
02/27/2015 10:58 Dry 28.0F 26F - - - - - 0 mhos 29 None None - -
02/27/2015 10:51 Dry 26.8F 26F - - - - - 0 mhos 31 None None - -
02/27/2015 10:48 Dry 26.8F 26F - - - - - 0 mhos 24 None None - -
02/27/2015 10:38 Dry 26.8F 26F - - - - - 0 mhos 23 Yes - - -
02/27/2015 10:38 Dry 26.8F 26F - - - - - 0 mhos 22 Yes - - -
02/27/2015 10:28 Dry 25.7F 26F - - - - - 0 mhos 26 None None - -
02/27/2015 10:21 Dry 25.5F 26F - - - - - 0 mhos 34 None None - -
02/27/2015 10:18 Dry 25.0F 26F - - - - - 0 mhos 39 None None - -
02/27/2015 10:08 Dry 23.7F 26F - - - - - 0 mhos 55 None None - -
02/27/2015 10:07 Dry 23.5F 26F - - - - - 0 mhos 57 None None - -
02/27/2015 09:58 Dry 22.1F 26F - - - - - 0 mhos 76 None None - -
02/27/2015 09:51 Dry 21.4F 26F - - - - - 0 mhos 71 None None - -
02/27/2015 09:48 Dry 21.2F 26F - - - - - 0 mhos 71 None None - -
02/27/2015 09:38 Dry 21.0F 26F - - - - - 0 mhos 72 None None - -
Date/Time
(MST)
Sf
Temp Chem Water Layer Surface Precipitation
Sf Sub Frz Factor Pct Depth IcePct Cond Salin Type Intens Accum Rate
02/27/2015 09:37 Dry 21.0F 26F - - - - - 0 mhos 74 None None - -
02/27/2015 09:28 Dry 20.5F 26F - - - - - 0 mhos 79 None None - -
02/27/2015 09:21 Dry 20.5F 26F - - - - - 0 mhos 83 None None - -
02/27/2015 09:17 Dry 19.2F 26F - - - - - 0 mhos 92 None None - -
02/27/2015 09:07 Dry 18.3F 26F - - - - - 0 mhos 104 None None - -
02/27/2015 09:07 Dry 18.3F 26F - - - - - 0 mhos 104 None None - -
02/27/2015 08:57 Dry 17.2F 27F - - - - - 0 mhos 112 None None - -
02/27/2015 08:51 Ice Warning 16.5F 26F 32F 5 0% - 99% 0 mhos 118 None None - -
02/27/2015 08:47 Ice Warning 15.6F 27F 32F 5 0% - 99% 0 mhos 127 None None - -
02/27/2015 08:37 Ice Warning 14.4F 27F 32F 5 0% - 99% 0 mhos 137 None None - -
02/27/2015 08:37 Ice Warning 14.4F 27F 32F 5 0% - 99% 0 mhos 137 None None - -
02/27/2015 08:27 Ice Warning 13.6F 27F 32F 5 0% - 99% 0 mhos 139 None None - -
02/27/2015 08:20 Ice Warning 13.3F 27F 32F 5 0% - 99% 0 mhos 140 None None - -
02/27/2015 08:17 Ice Warning 12.9F 27F 32F 5 0% - 99% 0 mhos 141 None None - -
02/27/2015 08:07 Ice Warning 12.0F 27F 32F 5 0% - 99% 0 mhos 137 None None - -
Date/Time
(MST)
Sf
Temp Chem Water Layer Surface Precipitation
Sf Sub Frz Factor Pct Depth IcePct Cond Salin Type Intens Accum Rate
02/27/2015 07:57 Ice Warning 11.3F 27F 32F 5 0% - 99% 0 mhos 128 None None - -
02/27/2015 07:51 Ice Warning 10.9F 27F 32F 5 0% - 99% 0 mhos 124 None None - -
02/27/2015 07:47 Ice Warning 10.8F 27F 32F 5 0% - 100% 0 mhos 122 None None - -
02/27/2015 07:37 Ice Warning 10.2F 27F 32F 5 0% - 100% 0 mhos 118 None None - -
02/27/2015 07:37 Ice Warning 10.0F 27F 32F 5 0% - 100% 0 mhos 119 None None - -
02/27/2015 07:27 Ice Warning 9.7F 27F 32F 5 0% - 100% 0 mhos 117 None None - -
02/27/2015 07:21 Ice Warning 9.5F 27F 32F 5 0% - 100% 0 mhos 117 None None - -
02/27/2015 07:17 Ice Warning 9.3F 27F 32F 5 0% - 100% 0 mhos 118 None None - -
02/27/2015 07:07 Ice Warning 9.3F 27F 32F 5 0% - 100% 0 mhos 120 None None - -
02/27/2015 07:07 Ice Warning 9.3F 27F 32F 5 0% - 100% 0 mhos 120 None None - -
02/27/2015 06:57 Ice Warning 9.1F 27F 32F 5 0% - 100% 0 mhos 121 None None - -
02/27/2015 06:51 Ice Warning 8.8F 27F 32F 5 0% - 100% 0 mhos 125 None None - -
02/27/2015 06:47 Ice Warning 8.8F 27F 32F 5 0% - 100% 0 mhos 125 None None - -
02/27/2015 06:38 Ice Warning 8.4F 27F 32F 5 0% - 100% 0 mhos 128 None None - -
02/27/2015 06:37 Ice Warning 8.4F 27F 32F 5 0% - 100% 0 mhos 128 None None - -
Date/Time
(MST)
Sf
Temp Chem Water Layer Surface Precipitation
Sf Sub Frz Factor Pct Depth IcePct Cond Salin Type Intens Accum Rate
02/27/2015 06:27 Ice Warning 8.4F 27F 32F 5 0% - 100% 0 mhos 128 None None - -
02/27/2015 06:21 Ice Warning 8.4F 27F 32F 5 0% - 100% 0 mhos 129 None None - -
02/27/2015 06:17 Ice Warning 8.6F 27F 32F 5 0% - 100% 0 mhos 127 None None - -
02/27/2015 06:07 Ice Warning 8.4F 27F 32F 5 0% - 100% 0 mhos 130 None None - -
02/27/2015 06:06 Ice Warning 8.4F 27F 32F 5 0% - 100% 0 mhos 130 None None - -
02/27/2015 05:56 Ice Warning 8.4F 27F 32F 5 0% - 100% 0 mhos 128 None None - -
02/27/2015 05:51 Ice Warning 8.4F 28F 32F 5 0% - 100% 0 mhos 132 None None - -
02/27/2015 05:46 Ice Warning 8.4F 28F 32F 5 0% - 100% 0 mhos 133 None None - -
02/27/2015 05:37 Ice Warning 8.4F 28F 32F 5 0% - 100% 0 mhos 133 None None - -
02/27/2015 05:36 Ice Warning 8.4F 28F 32F 5 0% - 100% 0 mhos 133 None None - -
02/27/2015 05:26 Ice Warning 8.2F 28F 32F 5 0% - 99% 0 mhos 135 None None - -
02/27/2015 05:21 Ice Warning 8.2F 28F 32F 5 0% - 99% 0 mhos 135 None None - -
02/27/2015 05:16 Ice Warning 8.2F 28F 32F 5 0% - 99% 0 mhos 136 None None - -
02/27/2015 05:07 Ice Warning 8.1F 28F 32F 5 0% - 99% 0 mhos 140 None None - -
02/27/2015 05:06 Ice Warning 8.1F 28F 32F 5 0% - 99% 0 mhos 141 None None - -
Date/Time
(MST)
Sf
Temp Chem Water Layer Surface Precipitation
Sf Sub Frz Factor Pct Depth IcePct Cond Salin Type Intens Accum Rate
02/27/2015 04:56 Ice Warning 8.1F 28F 32F 5 0% - 99% 0 mhos 143 None None - -
02/27/2015 04:51 Ice Warning 8.1F 28F 32F 5 0% - 99% 0 mhos 145 None None - -
02/27/2015 04:46 Ice Warning 8.1F 28F 32F 5 0% - 99% 0 mhos 142 None None - -
02/27/2015 04:37 Ice Warning 8.1F 28F 32F 5 0% - 99% 0 mhos 144 None None - -
02/27/2015 04:36 Ice Warning 8.1F 28F 32F 5 0% - 99% 0 mhos 144 None None - -
02/27/2015 04:26 Ice Warning 8.2F 28F 32F 5 0% - 99% 0 mhos 146 None None - -
02/27/2015 04:21 Ice Warning 8.2F 28F 32F 5 0% - 99% 0 mhos 148 None None - -
02/27/2015 04:16 Ice Warning 8.4F 28F 32F 5 0% - 99% 0 mhos 148 None None - -
02/27/2015 04:07 Ice Warning 8.4F 28F 32F 5 0% - 99% 0 mhos 149 None None - -
02/27/2015 04:06 Ice Warning 8.4F 28F 32F 5 0% - 99% 0 mhos 150 None None - -
02/27/2015 03:56 Ice Warning 8.4F 28F 32F 5 1% - 99% 0 mhos 154 None None - -
02/27/2015 03:51 Ice Warning 8.4F 28F 32F 5 1% - 99% 0 mhos 152 None None - -
02/27/2015 03:46 Ice Warning 8.4F 28F 32F 5 1% - 99% 0 mhos 153 None None - -
02/27/2015 03:37 Ice Warning 8.6F 28F 32F 5 1% - 99% 0 mhos 153 None None - -
02/27/2015 03:36 Ice Warning 8.6F 28F 32F 5 1% - 99% 0 mhos 153 None None - -
Date/Time
(MST)
Sf
Temp Chem Water Layer Surface Precipitation
Sf Sub Frz Factor Pct Depth IcePct Cond Salin Type Intens Accum Rate
02/27/2015 03:26 Ice Warning 8.6F 28F 32F 5 1% - 99% 0 mhos 155 None None - -
02/27/2015 03:21 Ice Warning 8.8F 28F 32F 5 1% - 99% 0 mhos 153 None None - -
02/27/2015 03:16 Ice Warning 8.8F 28F 32F 5 1% - 99% 0 mhos 151 None None - -
02/27/2015 03:07 Ice Warning 8.8F 28F 32F 5 0% - 99% 0 mhos 146 None None - -
02/27/2015 03:05 Ice Warning 8.8F 28F 32F 5 0% - 99% 0 mhos 146 None None - -
02/27/2015 02:55 Ice Warning 9.0F 28F 32F 5 0% - 99% 0 mhos 140 None None - -
02/27/2015 02:51 Ice Warning 9.1F 28F 32F 5 0% - 99% 0 mhos 137 None None - -
02/27/2015 02:45 Ice Warning 9.3F 28F 32F 5 0% - 99% 0 mhos 135 None None - -
02/27/2015 02:37 Ice Warning 9.5F 29F 32F 5 0% - 99% 0 mhos 130 None None - -
02/27/2015 02:35 Ice Warning 9.5F 29F 32F 5 0% - 99% 0 mhos 130 None None - -
02/27/2015 02:25 Ice Warning 9.9F 29F 32F 5 0% - 99% 0 mhos 128 None None - -
02/27/2015 02:21 Ice Warning 10.0F 29F 32F 5 0% - 99% 0 mhos 127 None None - -
02/27/2015 02:15 Ice Warning 10.0F 29F 32F 5 0% - 99% 0 mhos 129 None None - -
02/27/2015 02:07 Ice Warning 9.9F 29F 32F 5 0% - 99% 0 mhos 132 None None - -
02/27/2015 02:05 Ice Warning 9.9F 29F 32F 5 0% - 99% 0 mhos 132 None None - -
Date/Time
(MST)
Sf
Temp Chem Water Layer Surface Precipitation
Sf Sub Frz Factor Pct Depth IcePct Cond Salin Type Intens Accum Rate
02/27/2015 01:55 Ice Warning 9.3F 29F 32F 5 0% - 99% 0 mhos 139 None None - -
02/27/2015 01:51 Ice Warning 9.3F 29F 32F 5 0% - 99% 0 mhos 140 None None - -
02/27/2015 01:45 Ice Warning 9.3F 29F 32F 5 0% - 99% 0 mhos 142 None None - -
02/27/2015 01:37 Ice Warning 9.0F 29F 32F 5 0% - 99% 0 mhos 147 None None - -
02/27/2015 01:35 Ice Warning 9.0F 29F 32F 5 0% - 99% 0 mhos 148 None None - -
02/27/2015 01:25 Ice Warning 8.8F 29F 32F 5 1% - 99% 0 mhos 152 None None - -
02/27/2015 01:21 Ice Warning 8.6F 29F 32F 5 1% - 99% 0 mhos 154 None None - -
02/27/2015 01:15 Ice Warning 8.6F 29F 32F 5 1% - 99% 0 mhos 156 None None - -
02/27/2015 01:07 Ice Warning 8.4F 29F 32F 5 1% - 99% 0 mhos 159 None None - -
02/27/2015 01:05 Ice Warning 8.4F 29F 32F 5 1% - 99% 0 mhos 160 None None - -
02/27/2015 00:55 Ice Warning 8.6F 29F 32F 5 1% - 99% 0 mhos 160 None None - -
02/27/2015 00:51 Ice Warning 8.6F 29F 32F 5 1% - 99% 0 mhos 161 None None - -
02/27/2015 00:45 Ice Warning 8.6F 29F 32F 5 1% - 99% 0 mhos 162 None None - -
02/27/2015 00:38 Ice Warning 8.6F 29F 32F 5 1% - 99% 0 mhos 164 None None - -
02/27/2015 00:35 Ice Warning 8.8F 29F 32F 5 1% - 99% 0 mhos 162 None None - -
Date/Time
(MST)
Sf
Temp Chem Water Layer Surface Precipitation
Sf Sub Frz Factor Pct Depth IcePct Cond Salin Type Intens Accum Rate
02/27/2015 00:25 Ice Warning 8.8F 29F 32F 5 1% - 99% 0 mhos 163 None None - -
02/27/2015 00:20 Ice Warning 8.8F 29F 32F 5 1% - 99% 0 mhos 163 None None - -
02/27/2015 00:15 Ice Warning 9.0F 29F 32F 5 1% - 99% 0 mhos 162 None None - -
02/27/2015 00:05 Ice Warning 9.0F 29F 32F 5 1% - 99% 0 mhos 165 None None - -
02/27/2015 00:00 Ice Warning 9.0F 29F 32F 5 1% - 99% 0 mhos 167 None None - -
02/26/2015 23:54 Ice Warning 9.1F 29F 32F 5 1% - 99% 0 mhos 166 None None - -
02/26/2015 23:44 Ice Warning 9.3F 29F 32F 5 1% - 99% 0 mhos 165 None None - -
02/26/2015 23:38 Ice Warning 9.3F 29F 32F 10 1% - 99% 0 mhos 166 None None - -
02/26/2015 23:34 Ice Warning 9.3F 29F 32F 10 1% - 99% 0 mhos 164 None None - -
02/26/2015 23:24 Ice Warning 9.5F 29F 32F 10 1% - 99% 0 mhos 166 None None - -
02/26/2015 23:21 Ice Warning 9.7F 29F 32F 10 1% - 99% 0 mhos 165 None None - -
02/26/2015 23:14 Ice Warning 10.0F 30F 32F 10 1% - 99% 0 mhos 162 None None - -
02/26/2015 23:08 Ice Warning 10.0F 30F 32F 10 1% - 99% 0 mhos 163 None None - -
02/26/2015 23:04 Ice Warning 10.2F 30F 32F 10 1% - 99% 0 mhos 162 None None - -
02/26/2015 22:54 Ice Warning 10.2F 30F 32F 10 1% - 99% 0 mhos 162 None None - -
Date/Time
(MST)
Sf
Temp Chem Water Layer Surface Precipitation
Sf Sub Frz Factor Pct Depth IcePct Cond Salin Type Intens Accum Rate
02/26/2015 22:51 Ice Warning 10.4F 30F 32F 10 1% - 99% 0 mhos 161 None None - -
02/26/2015 22:44 Ice Warning 10.6F 30F 32F 10 1% - 99% 0 mhos 161 None None - -
02/26/2015 22:39 Ice Warning 10.8F 30F 32F 10 1% - 99% 0 mhos 160 None None - -
02/26/2015 22:34 Ice Warning 10.8F 30F 32F 10 1% - 99% 0 mhos 160 None None - -
02/26/2015 22:24 Ice Warning 11.1F 30F 32F 10 1% - 99% 0 mhos 158 None None - -
02/26/2015 22:21 Ice Warning 11.1F 30F 32F 10 1% - 99% 0 mhos 158 None None - -
02/26/2015 22:14 Ice Warning 11.3F 30F 32F 15 1% - 99% 0 mhos 156 None None - -
02/26/2015 22:08 Ice Warning 11.5F 30F 32F 15 1% - 99% 0 mhos 154 None None - -
02/26/2015 22:04 Ice Warning 11.7F 30F 32F 15 1% - 99% 0 mhos 153 None None - -
02/26/2015 21:54 Ice Warning 12.0F 30F 32F 15 0% - 99% 0 mhos 146 None None - -
02/26/2015 21:51 Ice Warning 11.8F 30F 32F 15 0% - 99% 0 mhos 146 None None - -
02/26/2015 21:44 Ice Warning 12.0F 30F 32F 15 0% - 99% 0 mhos 134 None None - -
02/26/2015 21:37 Ice Watch 11.7F 30F - 15 - - - 0 mhos 132 None None - -
02/26/2015 21:34 Ice Watch 11.8F 30F - 10 - - - 0 mhos 126 None None - -
02/26/2015 21:24 Ice Watch 11.8F 30F - 10 - - - 0 mhos 116 None None - -
Date/Time
(MST)
Sf
Temp Chem Water Layer Surface Precipitation
Sf Sub Frz Factor Pct Depth IcePct Cond Salin Type Intens Accum Rate
02/26/2015 21:21 Ice Watch 11.8F 30F - 10 - - - 0 mhos 114 None None - -
02/26/2015 21:14 Ice Watch 11.8F 30F - 10 - - - 0 mhos 107 None None - -
02/26/2015 21:08 Ice Watch 11.8F 30F - 5 - - - 0 mhos 102 None None - -
02/26/2015 21:04 Ice Watch 11.8F 30F - 5 - - - 0 mhos 98 None None - -
02/26/2015 20:54 Ice Watch 11.7F 30F - 5 - - - 0 mhos 89 None None - -
02/26/2015 20:51 Ice Watch 11.5F 30F - 5 - - - 0 mhos 87 None None - -
02/26/2015 20:43 Ice Watch 11.3F 30F - 5 - - - 0 mhos 85 None None - -
02/26/2015 20:37 Ice Watch 11.3F 30F - 5 - - - 0 mhos 80 None None - -
02/26/2015 20:33 Ice Watch 11.3F 30F - 5 - - - 0 mhos 78 None None - -
02/26/2015 20:23 Ice Watch 11.5F 30F - 5 - - - 0 mhos 73 None None - -
02/26/2015 20:21 Ice Watch 11.7F 30F - 5 - - - 0 mhos 72 None None - -
02/26/2015 20:13 Ice Watch 11.8F 30F - 5 - - - 0 mhos 68 None None - -
02/26/2015 20:07 Ice Watch 12.0F 30F - 5 - - - 0 mhos 65 None None - -
02/26/2015 20:03 Ice Watch 12.0F 30F - 5 - - - 0 mhos 63 None None - -
02/26/2015 19:53 Ice Watch 12.2F 30F - 5 - - - 0 mhos 59 None None - -
Date/Time
(MST)
Sf
Temp Chem Water Layer Surface Precipitation
Sf Sub Frz Factor Pct Depth IcePct Cond Salin Type Intens Accum Rate
02/26/2015 19:51 Ice Watch 12.2F 30F - 5 - - - 0 mhos 58 None None - -
02/26/2015 19:43 Ice Watch 12.4F 30F - 5 - - - 0 mhos 54 None None - -
02/26/2015 19:37 Ice Watch 12.6F 30F - 5 - - - 0 mhos 52 None None - -
02/26/2015 19:33 Ice Watch 12.7F 30F - 5 - - - 0 mhos 49 None None - -
02/26/2015 19:23 Dry 13.1F 30F - - - - - 0 mhos 46 None None - -
02/26/2015 19:21 Dry 13.3F 30F - - - - - 0 mhos 45 None None - -
02/26/2015 19:13 Dry 13.3F 30F - - - - - 0 mhos 43 None None - -
02/26/2015 19:07 Dry 13.6F 30F - - - - - 0 mhos 42 None None - -
02/26/2015 19:03 Dry 13.8F 30F - - - - - 0 mhos 40 None None - -
02/26/2015 18:53 Dry 14.2F 30F - - - - - 0 mhos 38 None None - -
02/26/2015 18:51 Dry 14.4F 30F - - - - - 0 mhos 37 None None - -
02/26/2015 18:43 Dry 14.7F 30F - - - - - 0 mhos 35 None None - -
02/26/2015 18:38 Dry 15.1F 30F - - - - - 0 mhos 34 None None - -
02/26/2015 18:33 Dry 15.1F 30F - - - - - 0 mhos 33 None None - -
02/26/2015 18:23 Dry 15.8F 30F - - - - - 0 mhos 29 None None - -
Date/Time
(MST)
Sf
Temp Chem Water Layer Surface Precipitation
Sf Sub Frz Factor Pct Depth IcePct Cond Salin Type Intens Accum Rate
02/26/2015 18:21 Dry 15.8F 30F - - - - - 0 mhos 29 None None - -
02/26/2015 18:13 Dry 16.2F 30F - - - - - 0 mhos 27 None None - -
02/26/2015 18:07 Dry 16.5F 30F - - - - - 0 mhos 25 None None - -
02/26/2015 18:03 Dry 16.9F 30F - - - - - 0 mhos 24 None None - -
02/26/2015 17:53 Dry 17.4F 30F - - - - - 0 mhos 22 None None - -
02/26/2015 17:51 Dry 17.4F 30F - - - - - 0 mhos 22 None None - -
02/26/2015 17:42 Dry 18.3F 30F - - - - - 0 mhos 16 None None - -
02/26/2015 17:37 Dry 18.7F 30F - - - - - 0 mhos 15 None None - -
02/26/2015 17:32 Dry 19.0F 30F - - - - - 0 mhos 15 None None - -
02/26/2015 17:22 Dry 20.3F 30F - - - - - 0 mhos 13 None None - -
02/26/2015 17:21 Dry 20.3F 30F - - - - - 0 mhos 12 None None - -
02/26/2015 17:12 Dry 21.2F 30F - - - - - 0 mhos 8 None None - -
02/26/2015 17:07 Dry 22.1F 30F - - - - - 0 mhos 7 None None - -
02/26/2015 17:02 Dry 24.3F 30F - - - - - 0 mhos 6 None None - -
02/26/2015 16:52 Dry 26.2F 30F - - - - - 0 mhos 5 None None - -
Date/Time
(MST)
Sf
Temp Chem Water Layer Surface Precipitation
Sf Sub Frz Factor Pct Depth IcePct Cond Salin Type Intens Accum Rate
02/26/2015 16:51 Dry 26.1F 30F - - - - - 0 mhos 5 None None - -
02/26/2015 16:42 Dry 27.3F 30F - - - - - 0 mhos 5 None None - -
02/26/2015 16:37 Dry 27.9F 30F - - - - - 0 mhos 5 None None - -
02/26/2015 16:32 Dry 28.0F 30F - - - - - 0 mhos 4 None None - -
02/26/2015 16:22 Dry 28.9F 30F - - - - - 0 mhos 4 None None - -
02/26/2015 16:21 Dry 28.8F 30F - - - - - 0 mhos 4 None None - -
02/26/2015 16:12 Dry 29.7F 30F - - - - - 0 mhos 4 None None - -
02/26/2015 16:08 Dry 29.7F 30F - - - - - 0 mhos 4 None None - -
02/26/2015 16:02 Dry 30.4F 30F - - - - - 0 mhos 3 None None - -
02/26/2015 15:52 Dry 31.3F 30F - - - - - 0 mhos 3 None None - -
02/26/2015 15:51 Dry 31.3F 30F - - - - - 0 mhos 3 None None - -
02/26/2015 15:42 Dry 32.0F 30F - - - - - 0 mhos 3 None None - -
02/26/2015 15:38 Dry 32.7F 30F - - - - - 0 mhos 3 None None - -
02/26/2015 15:32 Dry 33.6F 30F - - - - - 0 mhos 3 None None - -
02/26/2015 15:22 Dry 33.6F 30F - - - - - 0 mhos 3 None None - -
Date/Time
(MST)
Sf
Temp Chem Water Layer Surface Precipitation
Sf Sub Frz Factor Pct Depth IcePct Cond Salin Type Intens Accum Rate
02/26/2015 15:21 Dry 33.3F 30F - - - - - 0 mhos 3 None None - -
02/26/2015 15:12 Dry 32.9F 30F - - - - - 0 mhos 3 None None - -
02/26/2015 15:08 Dry 30.4F 30F - - - - - 0 mhos 3 None None - -
02/26/2015 15:02 Dry 31.1F 30F - - - - - 0 mhos 3 None None - -
02/26/2015 14:52 Dry 31.6F 30F - - - - - 0 mhos 3 None None - -
02/26/2015 14:51 Dry 32.2F 30F - - - - - 0 mhos 3 None None - -
02/26/2015 14:42 Dry 36.1F 30F - - - - - 0 mhos 3 None None - -
02/26/2015 14:38 Dry 38.7F 30F - - - - - 0 mhos 3 None None - -
02/26/2015 14:31 Dry 34.2F 30F - - - - - 0 mhos 3 None None - -
02/26/2015 14:21 Dry 31.5F 30F - - - - - 0 mhos 3 None None - -
02/26/2015 14:21 Dry 32.4F 30F - - - - - 0 mhos 3 None None - -
02/26/2015 14:11 Dry 32.9F 30F - - - - - 0 mhos 3 None None - -
Change End Date:
Copyright © 1998-2005 Surface Systems, Inc.
All Rights Reserved
Send comments about the data to:
SCAN Web ® is a registered trademark of Surface Systems, Inc.
SCAN Web Version 5.6